Terminal Aerodrome Forecast
Issued by NWS Jackson, KY

Home | Current Version | Previous Version | Text Only | Print | Product List | Glossary On
Versions: 1 2 3 4 5 6 7 8 9 10 11 12 13 14 15 16
000
FTUS43 KJKL 031354 AAA
TAFJKL
TAF AMD
KJKL 031354Z 0314/0412 VRB04KT 4SM BR OVC002
     FM031500 VRB04KT P6SM BKN010
     FM031600 VRB04KT P6SM SCT008 BKN016
     FM031800 29006KT P6SM BKN025
     FM032200 VRB03KT P6SM OVC035
     FM040500 VRB03KT P6SM OVC015=

USA.gov is the U.S. government's official web portal to all federal, state and local government web resources and services.